sensor_id;sensor_type;location;lat;lon;timestamp;P1;durP1;ratioP1;P2;durP2;ratioP2
25948;SDS011;13961;51.178;4.448;2023-10-31T00:00:17;36.75;;;20.70;;
25948;SDS011;13961;51.178;4.448;2023-10-31T00:02:43;40.53;;;21.17;;
25948;SDS011;13961;51.178;4.448;2023-10-31T00:05:08;36.38;;;20.48;;
25948;SDS011;13961;51.178;4.448;2023-10-31T00:07:34;35.92;;;20.13;;
25948;SDS011;13961;51.178;4.448;2023-10-31T00:10:00;34.10;;;19.60;;
25948;SDS011;13961;51.178;4.448;2023-10-31T00:12:26;34.20;;;18.92;;
25948;SDS011;13961;51.178;4.448;2023-10-31T00:14:51;33.35;;;19.52;;
25948;SDS011;13961;51.178;4.448;2023-10-31T00:17:18;36.67;;;18.73;;
25948;SDS011;13961;51.178;4.448;2023-10-31T00:19:44;32.90;;;17.85;;
25948;SDS011;13961;51.178;4.448;2023-10-31T00:22:09;30.63;;;18.77;;
25948;SDS011;13961;51.178;4.448;2023-10-31T00:24:36;31.42;;;18.23;;
25948;SDS011;13961;51.178;4.448;2023-10-31T00:27:01;32.15;;;18.08;;
25948;SDS011;13961;51.178;4.448;2023-10-31T00:29:27;33.58;;;18.23;;
25948;SDS011;13961;51.178;4.448;2023-10-31T00:31:53;35.25;;;18.88;;
25948;SDS011;13961;51.178;4.448;2023-10-31T00:34:19;31.42;;;18.50;;
25948;SDS011;13961;51.178;4.448;2023-10-31T00:36:45;32.00;;;19.05;;
25948;SDS011;13961;51.178;4.448;2023-10-31T00:39:11;34.35;;;19.52;;
25948;SDS011;13961;51.178;4.448;2023-10-31T00:41:37;40.08;;;21.13;;
25948;SDS011;13961;51.178;4.448;2023-10-31T00:44:04;34.22;;;20.80;;
25948;SDS011;13961;51.178;4.448;2023-10-31T00:46:30;40.78;;;22.33;;
25948;SDS011;13961;51.178;4.448;2023-10-31T00:48:57;39.78;;;21.13;;
25948;SDS011;13961;51.178;4.448;2023-10-31T00:51:22;39.08;;;21.08;;
25948;SDS011;13961;51.178;4.448;2023-10-31T00:53:48;41.85;;;22.15;;
25948;SDS011;13961;51.178;4.448;2023-10-31T00:56:13;41.15;;;21.30;;
25948;SDS011;13961;51.178;4.448;2023-10-31T00:58:39;37.67;;;21.50;;
25948;SDS011;13961;51.178;4.448;2023-10-31T01:01:04;42.85;;;21.77;;
25948;SDS011;13961;51.178;4.448;2023-10-31T01:03:30;42.40;;;22.95;;
25948;SDS011;13961;51.178;4.448;2023-10-31T01:05:56;48.50;;;21.83;;
25948;SDS011;13961;51.178;4.448;2023-10-31T01:08:21;42.35;;;21.77;;
25948;SDS011;13961;51.178;4.448;2023-10-31T01:10:47;39.28;;;20.80;;
25948;SDS011;13961;51.178;4.448;2023-10-31T01:13:13;42.40;;;22.05;;
25948;SDS011;13961;51.178;4.448;2023-10-31T01:15:38;41.25;;;21.50;;
25948;SDS011;13961;51.178;4.448;2023-10-31T01:18:04;44.22;;;21.55;;
25948;SDS011;13961;51.178;4.448;2023-10-31T01:20:31;37.10;;;21.25;;
25948;SDS011;13961;51.178;4.448;2023-10-31T01:22:56;36.83;;;20.35;;
25948;SDS011;13961;51.178;4.448;2023-10-31T01:25:22;38.97;;;20.75;;
25948;SDS011;13961;51.178;4.448;2023-10-31T01:27:48;41.58;;;21.33;;
25948;SDS011;13961;51.178;4.448;2023-10-31T01:30:13;36.67;;;20.20;;
25948;SDS011;13961;51.178;4.448;2023-10-31T01:32:39;34.05;;;20.52;;
25948;SDS011;13961;51.178;4.448;2023-10-31T01:35:05;37.50;;;20.17;;
25948;SDS011;13961;51.178;4.448;2023-10-31T01:37:30;36.15;;;20.23;;
25948;SDS011;13961;51.178;4.448;2023-10-31T01:39:56;38.35;;;19.67;;
25948;SDS011;13961;51.178;4.448;2023-10-31T01:42:22;36.38;;;18.70;;
25948;SDS011;13961;51.178;4.448;2023-10-31T01:44:47;37.17;;;19.48;;
25948;SDS011;13961;51.178;4.448;2023-10-31T01:47:13;30.35;;;18.77;;
25948;SDS011;13961;51.178;4.448;2023-10-31T01:49:38;31.73;;;16.98;;
25948;SDS011;13961;51.178;4.448;2023-10-31T01:52:05;30.45;;;17.08;;
25948;SDS011;13961;51.178;4.448;2023-10-31T01:54:32;29.05;;;16.35;;
25948;SDS011;13961;51.178;4.448;2023-10-31T01:56:59;28.77;;;16.50;;
25948;SDS011;13961;51.178;4.448;2023-10-31T01:59:25;24.80;;;15.55;;
25948;SDS011;13961;51.178;4.448;2023-10-31T02:01:54;26.67;;;14.60;;
25948;SDS011;13961;51.178;4.448;2023-10-31T02:04:22;23.73;;;14.25;;
25948;SDS011;13961;51.178;4.448;2023-10-31T02:06:50;21.35;;;13.13;;
25948;SDS011;13961;51.178;4.448;2023-10-31T02:09:16;23.02;;;13.80;;
25948;SDS011;13961;51.178;4.448;2023-10-31T02:11:42;22.63;;;13.15;;
25948;SDS011;13961;51.178;4.448;2023-10-31T02:14:07;22.33;;;13.88;;
25948;SDS011;13961;51.178;4.448;2023-10-31T02:16:33;23.25;;;14.25;;
25948;SDS011;13961;51.178;4.448;2023-10-31T02:18:59;21.63;;;14.18;;
25948;SDS011;13961;51.178;4.448;2023-10-31T02:21:24;22.42;;;13.55;;
25948;SDS011;13961;51.178;4.448;2023-10-31T02:23:57;22.23;;;13.48;;
25948;SDS011;13961;51.178;4.448;2023-10-31T02:26:31;21.50;;;13.82;;
25948;SDS011;13961;51.178;4.448;2023-10-31T02:28:58;25.55;;;14.38;;
25948;SDS011;13961;51.178;4.448;2023-10-31T02:31:24;22.98;;;14.45;;
25948;SDS011;13961;51.178;4.448;2023-10-31T02:33:50;24.35;;;14.60;;
25948;SDS011;13961;51.178;4.448;2023-10-31T02:36:16;25.38;;;14.10;;
25948;SDS011;13961;51.178;4.448;2023-10-31T02:38:42;24.90;;;15.13;;
25948;SDS011;13961;51.178;4.448;2023-10-31T02:41:07;27.17;;;14.98;;
25948;SDS011;13961;51.178;4.448;2023-10-31T02:43:33;22.65;;;14.75;;
25948;SDS011;13961;51.178;4.448;2023-10-31T02:45:59;23.20;;;14.75;;
25948;SDS011;13961;51.178;4.448;2023-10-31T02:48:25;23.02;;;14.52;;
25948;SDS011;13961;51.178;4.448;2023-10-31T02:50:51;24.98;;;14.50;;
25948;SDS011;13961;51.178;4.448;2023-10-31T02:53:18;24.77;;;14.18;;
25948;SDS011;13961;51.178;4.448;2023-10-31T02:55:45;22.45;;;14.05;;
25948;SDS011;13961;51.178;4.448;2023-10-31T02:58:10;23.42;;;14.20;;
25948;SDS011;13961;51.178;4.448;2023-10-31T03:00:36;22.75;;;13.85;;
25948;SDS011;13961;51.178;4.448;2023-10-31T03:03:02;21.00;;;13.45;;
25948;SDS011;13961;51.178;4.448;2023-10-31T03:05:28;24.10;;;12.95;;
25948;SDS011;13961;51.178;4.448;2023-10-31T03:07:54;23.08;;;14.15;;
25948;SDS011;13961;51.178;4.448;2023-10-31T03:10:19;23.25;;;14.52;;
25948;SDS011;13961;51.178;4.448;2023-10-31T03:12:46;23.35;;;14.27;;
25948;SDS011;13961;51.178;4.448;2023-10-31T03:15:12;21.98;;;14.10;;
25948;SDS011;13961;51.178;4.448;2023-10-31T03:17:38;22.73;;;13.98;;
25948;SDS011;13961;51.178;4.448;2023-10-31T03:20:04;23.25;;;14.20;;
25948;SDS011;13961;51.178;4.448;2023-10-31T03:22:30;23.45;;;14.55;;
25948;SDS011;13961;51.178;4.448;2023-10-31T03:24:55;24.60;;;15.50;;
25948;SDS011;13961;51.178;4.448;2023-10-31T03:27:21;27.65;;;15.40;;
25948;SDS011;13961;51.178;4.448;2023-10-31T03:29:47;22.80;;;14.57;;
25948;SDS011;13961;51.178;4.448;2023-10-31T03:32:14;20.08;;;15.00;;
25948;SDS011;13961;51.178;4.448;2023-10-31T03:34:40;22.25;;;13.73;;
25948;SDS011;13961;51.178;4.448;2023-10-31T03:37:07;22.60;;;13.63;;
25948;SDS011;13961;51.178;4.448;2023-10-31T03:39:33;23.10;;;13.57;;
25948;SDS011;13961;51.178;4.448;2023-10-31T03:41:59;21.67;;;13.15;;
25948;SDS011;13961;51.178;4.448;2023-10-31T03:44:25;17.15;;;12.23;;
25948;SDS011;13961;51.178;4.448;2023-10-31T03:46:50;17.67;;;11.88;;
25948;SDS011;13961;51.178;4.448;2023-10-31T03:49:16;16.65;;;11.25;;
25948;SDS011;13961;51.178;4.448;2023-10-31T03:51:42;18.95;;;11.32;;
25948;SDS011;13961;51.178;4.448;2023-10-31T03:54:08;16.75;;;9.77;;
25948;SDS011;13961;51.178;4.448;2023-10-31T03:56:40;16.77;;;9.55;;
25948;SDS011;13961;51.178;4.448;2023-10-31T03:59:06;14.13;;;9.55;;
25948;SDS011;13961;51.178;4.448;2023-10-31T04:01:31;13.55;;;7.95;;
25948;SDS011;13961;51.178;4.448;2023-10-31T04:03:57;12.45;;;8.35;;
25948;SDS011;13961;51.178;4.448;2023-10-31T04:06:22;11.68;;;7.85;;
25948;SDS011;13961;51.178;4.448;2023-10-31T04:08:48;15.23;;;8.55;;
25948;SDS011;13961;51.178;4.448;2023-10-31T04:11:14;11.63;;;7.55;;
25948;SDS011;13961;51.178;4.448;2023-10-31T04:13:39;15.07;;;8.00;;
25948;SDS011;13961;51.178;4.448;2023-10-31T04:16:05;13.38;;;7.38;;
25948;SDS011;13961;51.178;4.448;2023-10-31T04:18:31;11.55;;;7.72;;
25948;SDS011;13961;51.178;4.448;2023-10-31T04:20:57;14.90;;;7.63;;
25948;SDS011;13961;51.178;4.448;2023-10-31T04:23:23;13.75;;;7.47;;
25948;SDS011;13961;51.178;4.448;2023-10-31T04:25:49;11.18;;;7.18;;
25948;SDS011;13961;51.178;4.448;2023-10-31T04:28:17;10.13;;;6.75;;
25948;SDS011;13961;51.178;4.448;2023-10-31T04:30:43;12.38;;;6.53;;
25948;SDS011;13961;51.178;4.448;2023-10-31T04:33:09;11.55;;;6.78;;
25948;SDS011;13961;51.178;4.448;2023-10-31T04:35:34;10.80;;;6.50;;
25948;SDS011;13961;51.178;4.448;2023-10-31T04:38:00;10.20;;;6.35;;
25948;SDS011;13961;51.178;4.448;2023-10-31T04:40:25;8.98;;;6.18;;
25948;SDS011;13961;51.178;4.448;2023-10-31T04:42:52;9.10;;;6.15;;
25948;SDS011;13961;51.178;4.448;2023-10-31T04:45:19;11.70;;;6.75;;
25948;SDS011;13961;51.178;4.448;2023-10-31T04:47:44;11.18;;;6.55;;
25948;SDS011;13961;51.178;4.448;2023-10-31T04:50:10;10.05;;;6.10;;
25948;SDS011;13961;51.178;4.448;2023-10-31T04:52:36;8.82;;;5.65;;
25948;SDS011;13961;51.178;4.448;2023-10-31T04:55:01;9.85;;;6.05;;
25948;SDS011;13961;51.178;4.448;2023-10-31T04:57:27;9.10;;;5.80;;
25948;SDS011;13961;51.178;4.448;2023-10-31T04:59:52;9.55;;;6.05;;
25948;SDS011;13961;51.178;4.448;2023-10-31T05:02:23;13.95;;;6.57;;
25948;SDS011;13961;51.178;4.448;2023-10-31T05:04:49;10.25;;;6.10;;
25948;SDS011;13961;51.178;4.448;2023-10-31T05:07:18;10.50;;;6.60;;
25948;SDS011;13961;51.178;4.448;2023-10-31T05:09:43;9.10;;;5.80;;
25948;SDS011;13961;51.178;4.448;2023-10-31T05:12:09;10.07;;;6.18;;
25948;SDS011;13961;51.178;4.448;2023-10-31T05:14:35;10.35;;;6.43;;
25948;SDS011;13961;51.178;4.448;2023-10-31T05:17:00;10.93;;;6.57;;
25948;SDS011;13961;51.178;4.448;2023-10-31T05:19:26;11.85;;;6.43;;
25948;SDS011;13961;51.178;4.448;2023-10-31T05:21:52;10.77;;;7.30;;
25948;SDS011;13961;51.178;4.448;2023-10-31T05:24:18;11.55;;;6.65;;
25948;SDS011;13961;51.178;4.448;2023-10-31T05:26:43;12.55;;;7.40;;
25948;SDS011;13961;51.178;4.448;2023-10-31T05:29:10;12.02;;;7.13;;
25948;SDS011;13961;51.178;4.448;2023-10-31T05:31:36;15.50;;;7.68;;
25948;SDS011;13961;51.178;4.448;2023-10-31T05:34:02;12.77;;;7.45;;
25948;SDS011;13961;51.178;4.448;2023-10-31T05:36:28;13.48;;;7.47;;
25948;SDS011;13961;51.178;4.448;2023-10-31T05:38:54;14.25;;;7.88;;
25948;SDS011;13961;51.178;4.448;2023-10-31T05:41:20;16.70;;;8.50;;
25948;SDS011;13961;51.178;4.448;2023-10-31T05:43:46;14.85;;;8.63;;
25948;SDS011;13961;51.178;4.448;2023-10-31T05:46:11;14.95;;;9.25;;
25948;SDS011;13961;51.178;4.448;2023-10-31T05:48:43;13.98;;;8.48;;
25948;SDS011;13961;51.178;4.448;2023-10-31T05:53:41;13.88;;;8.88;;
25948;SDS011;13961;51.178;4.448;2023-10-31T05:56:08;17.00;;;9.68;;
25948;SDS011;13961;51.178;4.448;2023-10-31T05:58:34;17.20;;;9.57;;
25948;SDS011;13961;51.178;4.448;2023-10-31T06:01:01;17.20;;;10.77;;
25948;SDS011;13961;51.178;4.448;2023-10-31T06:03:27;16.60;;;10.95;;
25948;SDS011;13961;51.178;4.448;2023-10-31T06:05:53;19.95;;;11.98;;
25948;SDS011;13961;51.178;4.448;2023-10-31T06:08:18;23.25;;;13.18;;
25948;SDS011;13961;51.178;4.448;2023-10-31T06:10:45;19.60;;;11.65;;
25948;SDS011;13961;51.178;4.448;2023-10-31T06:13:10;18.13;;;11.80;;
25948;SDS011;13961;51.178;4.448;2023-10-31T06:15:36;25.83;;;11.55;;
25948;SDS011;13961;51.178;4.448;2023-10-31T06:18:02;15.88;;;10.48;;
25948;SDS011;13961;51.178;4.448;2023-10-31T06:20:28;21.05;;;11.18;;
25948;SDS011;13961;51.178;4.448;2023-10-31T06:22:53;21.63;;;11.73;;
25948;SDS011;13961;51.178;4.448;2023-10-31T06:25:19;18.23;;;11.13;;
25948;SDS011;13961;51.178;4.448;2023-10-31T06:27:45;19.42;;;12.25;;
25948;SDS011;13961;51.178;4.448;2023-10-31T06:30:10;20.55;;;12.63;;
25948;SDS011;13961;51.178;4.448;2023-10-31T06:32:36;23.05;;;12.80;;
25948;SDS011;13961;51.178;4.448;2023-10-31T06:35:05;22.58;;;14.15;;
25948;SDS011;13961;51.178;4.448;2023-10-31T06:37:31;21.58;;;13.77;;
25948;SDS011;13961;51.178;4.448;2023-10-31T06:39:56;24.65;;;14.15;;
25948;SDS011;13961;51.178;4.448;2023-10-31T06:42:22;24.33;;;14.40;;
25948;SDS011;13961;51.178;4.448;2023-10-31T06:44:47;26.70;;;15.48;;
25948;SDS011;13961;51.178;4.448;2023-10-31T06:47:13;26.83;;;15.95;;
25948;SDS011;13961;51.178;4.448;2023-10-31T06:49:39;25.88;;;15.48;;
25948;SDS011;13961;51.178;4.448;2023-10-31T06:52:05;28.92;;;16.67;;
25948;SDS011;13961;51.178;4.448;2023-10-31T06:54:31;28.83;;;16.42;;
25948;SDS011;13961;51.178;4.448;2023-10-31T06:56:57;27.58;;;15.32;;
25948;SDS011;13961;51.178;4.448;2023-10-31T06:59:23;28.08;;;16.02;;
25948;SDS011;13961;51.178;4.448;2023-10-31T07:01:48;28.35;;;15.70;;
25948;SDS011;13961;51.178;4.448;2023-10-31T07:04:14;30.95;;;16.63;;
25948;SDS011;13961;51.178;4.448;2023-10-31T07:06:41;28.17;;;16.13;;
25948;SDS011;13961;51.178;4.448;2023-10-31T07:09:07;27.02;;;16.50;;
25948;SDS011;13961;51.178;4.448;2023-10-31T07:11:32;26.05;;;15.85;;
25948;SDS011;13961;51.178;4.448;2023-10-31T07:14:02;33.70;;;16.83;;
25948;SDS011;13961;51.178;4.448;2023-10-31T07:16:28;27.52;;;16.35;;
25948;SDS011;13961;51.178;4.448;2023-10-31T07:18:54;28.17;;;17.33;;
25948;SDS011;13961;51.178;4.448;2023-10-31T07:21:20;28.83;;;15.93;;
25948;SDS011;13961;51.178;4.448;2023-10-31T07:23:46;27.90;;;15.93;;
25948;SDS011;13961;51.178;4.448;2023-10-31T07:26:11;34.67;;;17.58;;
25948;SDS011;13961;51.178;4.448;2023-10-31T07:28:37;30.02;;;17.60;;
25948;SDS011;13961;51.178;4.448;2023-10-31T07:31:02;30.75;;;16.98;;
25948;SDS011;13961;51.178;4.448;2023-10-31T07:33:29;28.15;;;16.45;;
25948;SDS011;13961;51.178;4.448;2023-10-31T07:35:55;27.52;;;17.10;;
25948;SDS011;13961;51.178;4.448;2023-10-31T07:38:20;28.75;;;16.90;;
25948;SDS011;13961;51.178;4.448;2023-10-31T07:40:46;30.63;;;16.67;;
25948;SDS011;13961;51.178;4.448;2023-10-31T07:43:13;27.63;;;16.05;;
25948;SDS011;13961;51.178;4.448;2023-10-31T07:45:39;30.45;;;17.13;;
25948;SDS011;13961;51.178;4.448;2023-10-31T07:48:04;36.28;;;17.65;;
25948;SDS011;13961;51.178;4.448;2023-10-31T07:50:30;28.60;;;16.67;;
25948;SDS011;13961;51.178;4.448;2023-10-31T07:52:56;30.55;;;17.92;;
25948;SDS011;13961;51.178;4.448;2023-10-31T07:55:22;28.80;;;17.17;;
25948;SDS011;13961;51.178;4.448;2023-10-31T07:57:47;31.35;;;18.73;;
25948;SDS011;13961;51.178;4.448;2023-10-31T08:00:13;30.10;;;17.55;;
25948;SDS011;13961;51.178;4.448;2023-10-31T08:02:39;29.73;;;17.58;;
25948;SDS011;13961;51.178;4.448;2023-10-31T08:05:05;29.27;;;18.50;;
25948;SDS011;13961;51.178;4.448;2023-10-31T08:07:32;32.03;;;18.17;;
25948;SDS011;13961;51.178;4.448;2023-10-31T08:09:57;32.28;;;17.98;;
25948;SDS011;13961;51.178;4.448;2023-10-31T08:12:23;33.33;;;18.83;;
25948;SDS011;13961;51.178;4.448;2023-10-31T08:14:49;34.40;;;19.02;;
25948;SDS011;13961;51.178;4.448;2023-10-31T08:17:15;34.63;;;18.80;;
25948;SDS011;13961;51.178;4.448;2023-10-31T08:19:40;30.48;;;17.35;;
25948;SDS011;13961;51.178;4.448;2023-10-31T08:22:07;31.38;;;18.52;;
25948;SDS011;13961;51.178;4.448;2023-10-31T08:24:33;32.28;;;19.17;;
25948;SDS011;13961;51.178;4.448;2023-10-31T08:27:01;34.65;;;18.08;;
25948;SDS011;13961;51.178;4.448;2023-10-31T08:29:27;33.30;;;17.65;;
25948;SDS011;13961;51.178;4.448;2023-10-31T08:31:52;31.20;;;18.55;;
25948;SDS011;13961;51.178;4.448;2023-10-31T08:34:18;31.55;;;18.52;;
25948;SDS011;13961;51.178;4.448;2023-10-31T08:36:43;31.42;;;18.17;;
25948;SDS011;13961;51.178;4.448;2023-10-31T08:39:09;30.58;;;18.75;;
25948;SDS011;13961;51.178;4.448;2023-10-31T08:41:35;29.33;;;17.60;;
25948;SDS011;13961;51.178;4.448;2023-10-31T08:44:02;29.35;;;17.88;;
25948;SDS011;13961;51.178;4.448;2023-10-31T08:46:28;29.17;;;16.02;;
25948;SDS011;13961;51.178;4.448;2023-10-31T08:48:54;31.45;;;18.00;;
25948;SDS011;13961;51.178;4.448;2023-10-31T08:51:19;26.15;;;17.38;;
25948;SDS011;13961;51.178;4.448;2023-10-31T08:53:45;26.58;;;16.88;;
25948;SDS011;13961;51.178;4.448;2023-10-31T08:56:11;27.00;;;16.92;;
25948;SDS011;13961;51.178;4.448;2023-10-31T08:58:36;27.02;;;16.35;;
25948;SDS011;13961;51.178;4.448;2023-10-31T09:01:02;26.80;;;16.73;;
25948;SDS011;13961;51.178;4.448;2023-10-31T09:03:28;26.35;;;16.60;;
25948;SDS011;13961;51.178;4.448;2023-10-31T09:05:53;22.00;;;15.43;;
25948;SDS011;13961;51.178;4.448;2023-10-31T09:08:19;24.15;;;15.23;;
25948;SDS011;13961;51.178;4.448;2023-10-31T09:10:45;21.80;;;14.25;;
25948;SDS011;13961;51.178;4.448;2023-10-31T09:13:11;22.70;;;15.10;;
25948;SDS011;13961;51.178;4.448;2023-10-31T09:15:39;21.77;;;14.05;;
25948;SDS011;13961;51.178;4.448;2023-10-31T09:18:06;20.50;;;13.60;;
25948;SDS011;13961;51.178;4.448;2023-10-31T09:20:31;18.02;;;13.25;;
25948;SDS011;13961;51.178;4.448;2023-10-31T09:22:57;17.67;;;12.85;;
25948;SDS011;13961;51.178;4.448;2023-10-31T09:25:24;20.17;;;13.50;;
25948;SDS011;13961;51.178;4.448;2023-10-31T09:27:49;17.83;;;13.13;;
25948;SDS011;13961;51.178;4.448;2023-10-31T09:30:15;17.23;;;12.80;;
25948;SDS011;13961;51.178;4.448;2023-10-31T09:32:40;18.15;;;12.60;;
25948;SDS011;13961;51.178;4.448;2023-10-31T09:35:06;19.67;;;11.77;;
25948;SDS011;13961;51.178;4.448;2023-10-31T09:37:33;18.00;;;12.30;;
25948;SDS011;13961;51.178;4.448;2023-10-31T09:39:58;18.85;;;12.20;;
25948;SDS011;13961;51.178;4.448;2023-10-31T09:42:24;15.75;;;11.02;;
25948;SDS011;13961;51.178;4.448;2023-10-31T09:44:50;17.52;;;11.43;;
25948;SDS011;13961;51.178;4.448;2023-10-31T09:47:16;15.13;;;10.68;;
25948;SDS011;13961;51.178;4.448;2023-10-31T09:49:42;13.52;;;9.95;;
25948;SDS011;13961;51.178;4.448;2023-10-31T09:52:09;17.25;;;11.38;;
25948;SDS011;13961;51.178;4.448;2023-10-31T09:54:35;16.30;;;10.43;;
25948;SDS011;13961;51.178;4.448;2023-10-31T09:57:03;16.52;;;10.57;;
25948;SDS011;13961;51.178;4.448;2023-10-31T09:59:29;14.57;;;10.18;;
25948;SDS011;13961;51.178;4.448;2023-10-31T10:01:55;16.00;;;11.20;;
25948;SDS011;13961;51.178;4.448;2023-10-31T10:04:21;13.57;;;10.10;;
25948;SDS011;13961;51.178;4.448;2023-10-31T10:06:50;12.27;;;9.88;;
25948;SDS011;13961;51.178;4.448;2023-10-31T10:09:16;12.55;;;10.32;;
25948;SDS011;13961;51.178;4.448;2023-10-31T10:11:42;15.13;;;10.30;;
25948;SDS011;13961;51.178;4.448;2023-10-31T10:14:08;16.42;;;9.88;;
25948;SDS011;13961;51.178;4.448;2023-10-31T10:16:35;11.75;;;9.05;;
25948;SDS011;13961;51.178;4.448;2023-10-31T10:21:59;12.00;;;8.55;;
25948;SDS011;13961;51.178;4.448;2023-10-31T10:24:25;9.43;;;7.50;;
25948;SDS011;13961;51.178;4.448;2023-10-31T10:26:51;10.02;;;7.35;;
25948;SDS011;13961;51.178;4.448;2023-10-31T10:29:17;13.10;;;7.43;;
25948;SDS011;13961;51.178;4.448;2023-10-31T10:31:43;11.10;;;6.65;;
25948;SDS011;13961;51.178;4.448;2023-10-31T10:34:12;10.38;;;7.43;;
25948;SDS011;13961;51.178;4.448;2023-10-31T10:36:39;10.13;;;7.13;;
25948;SDS011;13961;51.178;4.448;2023-10-31T10:39:05;14.50;;;7.57;;
25948;SDS011;13961;51.178;4.448;2023-10-31T10:41:32;10.15;;;7.00;;
25948;SDS011;13961;51.178;4.448;2023-10-31T10:44:04;11.95;;;7.10;;
25948;SDS011;13961;51.178;4.448;2023-10-31T10:46:34;14.75;;;7.40;;
25948;SDS011;13961;51.178;4.448;2023-10-31T10:49:05;14.57;;;7.70;;
25948;SDS011;13961;51.178;4.448;2023-10-31T10:54:15;10.20;;;6.70;;
25948;SDS011;13961;51.178;4.448;2023-10-31T10:56:46;12.50;;;6.38;;
25948;SDS011;13961;51.178;4.448;2023-10-31T10:59:30;12.98;;;6.20;;
25948;SDS011;13961;51.178;4.448;2023-10-31T11:02:03;15.05;;;6.07;;
25948;SDS011;13961;51.178;4.448;2023-10-31T11:04:33;10.73;;;5.93;;
25948;SDS011;13961;51.178;4.448;2023-10-31T11:06:59;8.68;;;5.40;;
25948;SDS011;13961;51.178;4.448;2023-10-31T11:09:26;8.57;;;5.55;;
25948;SDS011;13961;51.178;4.448;2023-10-31T11:11:52;8.82;;;5.80;;
25948;SDS011;13961;51.178;4.448;2023-10-31T11:14:18;7.93;;;5.78;;
25948;SDS011;13961;51.178;4.448;2023-10-31T11:16:45;12.63;;;5.88;;
25948;SDS011;13961;51.178;4.448;2023-10-31T11:19:16;10.90;;;5.75;;
25948;SDS011;13961;51.178;4.448;2023-10-31T11:21:58;6.57;;;4.90;;
25948;SDS011;13961;51.178;4.448;2023-10-31T11:24:29;9.60;;;5.13;;
25948;SDS011;13961;51.178;4.448;2023-10-31T11:26:58;8.60;;;4.70;;
25948;SDS011;13961;51.178;4.448;2023-10-31T11:29:25;8.15;;;4.45;;
25948;SDS011;13961;51.178;4.448;2023-10-31T11:31:51;13.00;;;4.78;;
25948;SDS011;13961;51.178;4.448;2023-10-31T11:34:19;9.15;;;5.30;;
25948;SDS011;13961;51.178;4.448;2023-10-31T11:36:45;7.22;;;4.35;;
25948;SDS011;13961;51.178;4.448;2023-10-31T11:39:17;12.02;;;5.10;;
25948;SDS011;13961;51.178;4.448;2023-10-31T11:41:49;11.05;;;4.70;;
25948;SDS011;13961;51.178;4.448;2023-10-31T11:44:18;10.95;;;5.18;;
25948;SDS011;13961;51.178;4.448;2023-10-31T11:46:53;14.98;;;5.22;;
25948;SDS011;13961;51.178;4.448;2023-10-31T11:49:52;9.95;;;4.80;;
25948;SDS011;13961;51.178;4.448;2023-10-31T11:52:15;9.93;;;4.60;;
25948;SDS011;13961;51.178;4.448;2023-10-31T11:54:41;8.07;;;4.70;;
25948;SDS011;13961;51.178;4.448;2023-10-31T11:57:08;9.82;;;5.20;;
25948;SDS011;13961;51.178;4.448;2023-10-31T11:59:37;9.48;;;4.63;;
25948;SDS011;13961;51.178;4.448;2023-10-31T12:02:18;9.77;;;4.72;;
25948;SDS011;13961;51.178;4.448;2023-10-31T12:04:45;10.25;;;4.72;;
25948;SDS011;13961;51.178;4.448;2023-10-31T12:07:10;11.32;;;5.38;;
25948;SDS011;13961;51.178;4.448;2023-10-31T12:12:31;14.63;;;5.47;;
25948;SDS011;13961;51.178;4.448;2023-10-31T12:15:04;12.10;;;5.10;;
25948;SDS011;13961;51.178;4.448;2023-10-31T12:17:33;11.45;;;6.25;;
25948;SDS011;13961;51.178;4.448;2023-10-31T12:20:03;15.40;;;6.32;;
25948;SDS011;13961;51.178;4.448;2023-10-31T12:22:34;12.30;;;6.20;;
25948;SDS011;13961;51.178;4.448;2023-10-31T12:25:04;11.43;;;6.70;;
25948;SDS011;13961;51.178;4.448;2023-10-31T12:27:48;14.18;;;7.55;;
25948;SDS011;13961;51.178;4.448;2023-10-31T12:30:18;10.70;;;6.68;;
25948;SDS011;13961;51.178;4.448;2023-10-31T12:32:57;12.77;;;7.15;;
25948;SDS011;13961;51.178;4.448;2023-10-31T12:35:23;13.85;;;7.60;;
25948;SDS011;13961;51.178;4.448;2023-10-31T12:37:52;13.95;;;7.88;;
25948;SDS011;13961;51.178;4.448;2023-10-31T12:40:18;15.27;;;8.05;;
25948;SDS011;13961;51.178;4.448;2023-10-31T12:42:47;12.65;;;8.18;;
25948;SDS011;13961;51.178;4.448;2023-10-31T12:45:14;15.45;;;8.68;;
25948;SDS011;13961;51.178;4.448;2023-10-31T12:47:40;12.75;;;8.38;;
25948;SDS011;13961;51.178;4.448;2023-10-31T12:52:49;11.80;;;7.82;;
25948;SDS011;13961;51.178;4.448;2023-10-31T12:55:16;14.15;;;8.63;;
25948;SDS011;13961;51.178;4.448;2023-10-31T12:57:50;15.45;;;8.88;;
25948;SDS011;13961;51.178;4.448;2023-10-31T13:00:17;15.05;;;9.13;;
25948;SDS011;13961;51.178;4.448;2023-10-31T13:02:49;17.70;;;9.80;;
25948;SDS011;13961;51.178;4.448;2023-10-31T13:05:16;17.08;;;9.88;;
25948;SDS011;13961;51.178;4.448;2023-10-31T13:07:49;18.95;;;10.13;;
25948;SDS011;13961;51.178;4.448;2023-10-31T13:10:18;21.65;;;10.48;;
25948;SDS011;13961;51.178;4.448;2023-10-31T13:12:45;17.38;;;9.75;;
25948;SDS011;13961;51.178;4.448;2023-10-31T13:15:15;17.45;;;10.32;;
25948;SDS011;13961;51.178;4.448;2023-10-31T13:17:42;17.50;;;9.85;;
25948;SDS011;13961;51.178;4.448;2023-10-31T13:20:11;17.60;;;9.52;;
25948;SDS011;13961;51.178;4.448;2023-10-31T13:22:38;19.33;;;10.20;;
25948;SDS011;13961;51.178;4.448;2023-10-31T13:25:06;19.70;;;9.32;;
25948;SDS011;13961;51.178;4.448;2023-10-31T13:27:34;15.73;;;8.75;;
25948;SDS011;13961;51.178;4.448;2023-10-31T13:30:03;16.10;;;8.93;;
25948;SDS011;13961;51.178;4.448;2023-10-31T13:32:29;13.27;;;8.63;;
25948;SDS011;13961;51.178;4.448;2023-10-31T13:34:55;12.77;;;8.40;;
25948;SDS011;13961;51.178;4.448;2023-10-31T13:37:21;14.23;;;8.05;;
25948;SDS011;13961;51.178;4.448;2023-10-31T13:39:47;15.68;;;8.30;;
25948;SDS011;13961;51.178;4.448;2023-10-31T13:42:13;13.10;;;7.97;;
25948;SDS011;13961;51.178;4.448;2023-10-31T13:44:42;11.73;;;7.57;;
25948;SDS011;13961;51.178;4.448;2023-10-31T13:47:07;15.77;;;8.00;;
25948;SDS011;13961;51.178;4.448;2023-10-31T13:49:34;11.90;;;7.38;;
25948;SDS011;13961;51.178;4.448;2023-10-31T13:52:00;11.43;;;7.57;;
25948;SDS011;13961;51.178;4.448;2023-10-31T13:54:26;14.85;;;7.65;;
25948;SDS011;13961;51.178;4.448;2023-10-31T13:56:52;12.02;;;7.40;;
25948;SDS011;13961;51.178;4.448;2023-10-31T13:59:17;13.02;;;7.20;;
25948;SDS011;13961;51.178;4.448;2023-10-31T14:01:43;11.43;;;6.95;;
25948;SDS011;13961;51.178;4.448;2023-10-31T14:04:12;12.73;;;7.10;;
25948;SDS011;13961;51.178;4.448;2023-10-31T14:06:38;11.35;;;7.00;;
25948;SDS011;13961;51.178;4.448;2023-10-31T14:09:04;11.63;;;7.35;;
25948;SDS011;13961;51.178;4.448;2023-10-31T14:11:32;12.93;;;6.85;;
25948;SDS011;13961;51.178;4.448;2023-10-31T14:13:58;9.02;;;6.32;;
25948;SDS011;13961;51.178;4.448;2023-10-31T14:16:38;9.32;;;6.32;;
25948;SDS011;13961;51.178;4.448;2023-10-31T14:19:05;11.05;;;5.70;;
25948;SDS011;13961;51.178;4.448;2023-10-31T14:21:32;8.35;;;5.40;;
25948;SDS011;13961;51.178;4.448;2023-10-31T14:24:01;9.57;;;5.40;;
25948;SDS011;13961;51.178;4.448;2023-10-31T14:26:28;8.23;;;5.10;;
25948;SDS011;13961;51.178;4.448;2023-10-31T14:28:54;6.60;;;4.88;;
25948;SDS011;13961;51.178;4.448;2023-10-31T14:31:21;8.27;;;4.00;;
25948;SDS011;13961;51.178;4.448;2023-10-31T14:33:46;7.53;;;3.92;;
25948;SDS011;13961;51.178;4.448;2023-10-31T14:36:12;5.15;;;3.45;;
25948;SDS011;13961;51.178;4.448;2023-10-31T14:38:38;6.57;;;3.90;;